domodi.pl alexa rank chart, domodi.pl alexa rank daily changes

domodi.pl alexa rank chart, domodi.pl alexa rank daily changes

domodi.pl
Actual rank:
22 813

RANK HISTORY

Date Rank Diff
2017/07/20 22 813 -18
2017/07/19 22 831 +85
2017/07/18 22 746 -15
2017/07/17 22 761 +199
2017/07/16 22 562 -126
2017/07/15 22 688 -147
2017/07/14 22 835 -17
2017/07/13 22 852 -70
2017/07/12 22 922 +8
2017/07/11 22 914 -188
2017/07/10 23 102 +49
2017/07/09 23 053 -109
2017/07/08 23 162 +10
2017/07/07 23 152 -223
2017/07/06 23 375 +112
2017/07/05 23 263 -135
2017/07/04 23 398 -540
2017/07/03 23 938 -333
2017/07/02 24 271 -66
2017/07/01 24 337 +120
2017/06/30 24 217 +3
2017/06/29 24 214 -22
2017/06/28 24 236 -149
2017/06/27 24 385 -97
2017/06/26 24 482 +251
2017/06/25 24 231 +7
2017/06/24 24 224 +26
2017/06/23 24 198 +52
2017/06/22 24 146 +125
2017/06/21 24 021 +219
2017/06/20 23 802 -133
2017/06/19 23 935 +51
2017/06/18 23 884 -117
2017/06/17 24 001 -154
2017/06/16 24 155 +409
2017/06/15 23 746 +217
2017/06/14 23 529 +151
2017/06/13 23 378 -74
2017/06/12 23 452 -45
2017/06/11 23 497 +190
2017/06/10 23 307 +297
2017/06/09 23 010 +326
2017/06/08 22 684 +148
2017/06/07 22 536 +263
2017/06/06 22 273 +134
2017/06/05 22 139 +352
2017/06/04 21 787 +142
2017/06/03 21 645 +277
2017/06/02 21 368 +196
2017/06/01 21 172 +106
2017/05/31 21 066 +105
2017/05/30 20 961 +32
2017/05/29 20 929 -53
2017/05/28 20 982 +156
2017/05/27 20 826 -92
2017/05/26 20 918 +63
2017/05/25 20 855 +331
2017/05/24 20 524 +162
2017/05/23 20 362 -228
2017/05/22 20 590 -140
2017/05/21 20 730

WIDGET FOR YOUR SITE

DOMAINS WITH THE NEAREST RANK

Domain Rank
tagdiv.com 22 808
kinozadrot.club 22 809
utm.edu 22 810
ashiyane.org 22 811
musicafresca.com 22 812
domodi.pl 22 813
wbur.org 22 814
plp7.ru 22 815
apkfind.com 22 816
enbank.ir 22 817
mundotkm.com 22 818

DOMAINS WITH THE NEAREST RANK BY TLD .pl

Domain Rank
parenting.pl 22 130
telewizjarepublika.pl 22 199
credit-agricole.pl 22 493
emag.pl 22 631
homebook.pl 22 780
domodi.pl 22 813
gowork.pl 22 924
rmfon.pl 23 106
speedtest.pl 23 138
izito.pl 23 334
napiprojekt.pl 23 486